Time;durP1;ratioP1;P1;durP2;ratioP2;P2;SDS_P1;SDS_P2;PMS_P1;PMS_P2;Temp;Humidity;BMP_temperature;BMP_pressure;BME280_temperature;BME280_humidity;BME280_pressure;Samples;Min_cycle;Max_cycle;Signal;HPM_P1;HPM_P2
2023/05/28 04:02:44;;;;;;;4.17;2.33;;;16.90;62.80;;;;;;5145464;22;20509;-77
2023/05/28 04:05:11;;;;;;;3.57;2.40;;;16.90;62.60;;;;;;5036078;28;20944;-77
2023/05/28 04:07:37;;;;;;;3.67;2.50;;;17.00;63.00;;;;;;5036068;28;21017;-76
2023/05/28 04:10:05;;;;;;;3.27;2.43;;;17.00;62.70;;;;;;5036231;28;20473;-77
2023/05/28 04:12:31;;;;;;;2.93;2.20;;;17.00;62.70;;;;;;5036178;28;20551;-76
2023/05/28 04:14:58;;;;;;;3.10;2.60;;;17.10;63.20;;;;;;5145411;22;20498;-77
2023/05/28 04:17:25;;;;;;;3.87;2.63;;;17.10;62.80;;;;;;5036203;28;20478;-77
2023/05/28 04:19:53;;;;;;;3.20;2.20;;;17.20;63.00;;;;;;5036157;28;20479;-78
2023/05/28 04:22:20;;;;;;;2.80;2.23;;;17.30;63.00;;;;;;5035897;28;20932;-77
2023/05/28 04:24:48;;;;;;;3.30;2.60;;;17.30;62.90;;;;;;5035798;28;20980;-77
2023/05/28 04:27:15;;;;;;;3.97;2.80;;;17.40;62.60;;;;;;5036082;28;20463;-77
2023/05/28 04:29:42;;;;;;;3.70;2.27;;;17.40;62.60;;;;;;5035670;28;20960;-77
2023/05/28 04:32:09;;;;;;;4.40;2.63;;;17.50;62.40;;;;;;5035567;28;20451;-77
2023/05/28 04:34:37;;;;;;;2.90;2.13;;;17.60;62.00;;;;;;5035466;28;21030;-78
2023/05/28 04:37:05;;;;;;;3.83;2.20;;;17.70;62.40;;;;;;5035802;28;20531;-76
2023/05/28 04:39:32;;;;;;;3.53;2.40;;;17.80;62.00;;;;;;5035736;28;20530;-78
2023/05/28 04:42:03;;;;;;;3.13;1.90;;;17.90;61.70;;;;;;5035650;28;20583;-77
2023/05/28 04:44:30;;;;;;;3.43;2.57;;;17.90;61.30;;;;;;5035561;28;20479;-78
2023/05/28 04:46:58;;;;;;;2.70;2.10;;;18.00;60.60;;;;;;5035565;28;20448;-76
2023/05/28 04:49:25;;;;;;;3.30;2.43;;;18.10;60.20;;;;;;5035586;28;20455;-77
2023/05/28 04:51:52;;;;;;;3.00;2.23;;;18.30;60.50;;;;;;5035478;28;20452;-77
2023/05/28 04:54:20;;;;;;;3.50;2.50;;;18.40;60.40;;;;;;5035038;28;21047;-77
2023/05/28 04:56:48;;;;;;;3.00;2.10;;;18.50;59.90;;;;;;5035404;28;20819;-77
2023/05/28 04:59:14;;;;;;;4.00;1.90;;;18.60;60.40;;;;;;5035402;28;20547;-77
2023/05/28 05:01:41;;;;;;;2.60;2.10;;;18.70;60.40;;;;;;5035216;28;20475;-78
2023/05/28 05:04:08;;;;;;;3.67;2.43;;;18.80;58.70;;;;;;5035231;28;20475;-77
2023/05/28 05:06:35;;;;;;;3.00;2.00;;;18.90;58.50;;;;;;5035052;28;20848;-77
2023/05/28 05:09:03;;;;;;;3.30;2.00;;;19.00;57.90;;;;;;5035169;28;20451;-78
2023/05/28 05:11:31;;;;;;;3.17;2.17;;;19.10;58.30;;;;;;5034875;28;20455;-78
2023/05/28 05:13:58;;;;;;;3.03;1.97;;;19.20;55.70;;;;;;5034679;28;20514;-78
2023/05/28 05:16:25;;;;;;;3.70;2.00;;;19.30;56.50;;;;;;5035005;28;20451;-76
2023/05/28 05:18:51;;;;;;;4.53;2.40;;;19.40;56.20;;;;;;5034982;28;20555;-77
2023/05/28 05:21:18;;;;;;;3.20;2.40;;;19.50;55.70;;;;;;5034807;28;20486;-77
2023/05/28 05:23:45;;;;;;;2.90;2.30;;;19.60;56.30;;;;;;5034779;28;20521;-76
2023/05/28 05:26:12;;;;;;;3.50;2.10;;;19.60;54.60;;;;;;5034763;28;20447;-76
2023/05/28 05:28:41;;;;;;;3.27;2.50;;;19.30;53.50;;;;;;5034785;28;20452;-76
2023/05/28 05:31:08;;;;;;;3.13;2.13;;;19.30;54.20;;;;;;5034752;28;20451;-77
2023/05/28 05:33:35;;;;;;;3.23;2.40;;;19.40;54.00;;;;;;5034733;28;20514;-78
2023/05/28 05:36:02;;;;;;;4.70;2.57;;;19.60;55.20;;;;;;5034300;28;20848;-77
2023/05/28 05:38:31;;;;;;;3.10;2.27;;;19.50;54.70;;;;;;5034562;28;20447;-76
2023/05/28 05:40:57;;;;;;;2.70;2.17;;;19.30;53.40;;;;;;5034417;28;20480;-76
2023/05/28 05:43:24;;;;;;;4.50;2.90;;;19.40;53.40;;;;;;5033861;28;20471;-76
2023/05/28 05:45:52;;;;;;;2.93;2.17;;;19.10;54.60;;;;;;5034454;28;20455;-77
2023/05/28 05:48:19;;;;;;;3.70;2.50;;;19.50;54.50;;;;;;5034416;28;20447;-76
2023/05/28 05:50:49;;;;;;;3.43;2.40;;;19.60;54.00;;;;;;5034451;28;20451;-76
2023/05/28 05:53:16;;;;;;;3.13;2.10;;;19.50;55.00;;;;;;5034345;28;20506;-76
2023/05/28 05:55:43;;;;;;;3.73;2.33;;;19.80;54.30;;;;;;5033964;28;20944;-76
2023/05/28 05:58:10;;;;;;;3.17;2.00;;;19.90;53.80;;;;;;5033987;28;20451;-76
2023/05/28 06:00:37;;;;;;;3.40;2.10;;;19.60;54.40;;;;;;5034117;28;20448;-77
2023/05/28 06:03:06;;;;;;;4.13;2.50;;;19.70;54.00;;;;;;5034067;28;20478;-76
2023/05/28 06:05:32;;;;;;;3.53;2.60;;;19.90;53.50;;;;;;5034170;28;20805;-76
2023/05/28 06:07:59;;;;;;;3.00;2.17;;;19.80;54.10;;;;;;5034116;28;20501;-76
2023/05/28 06:10:26;;;;;;;3.30;1.93;;;19.70;54.00;;;;;;5034014;28;20451;-76
2023/05/28 06:12:52;;;;;;;3.17;2.50;;;19.90;53.10;;;;;;5033968;28;20443;-76
2023/05/28 06:15:19;;;;;;;3.50;2.30;;;20.20;53.70;;;;;;5033883;28;20550;-76
2023/05/28 06:17:46;;;;;;;3.70;2.43;;;20.40;52.70;;;;;;5033881;28;20439;-78
2023/05/28 06:20:14;;;;;;;2.50;2.30;;;20.60;53.10;;;;;;5033889;28;20498;-76
2023/05/28 06:22:41;;;;;;;3.43;2.00;;;20.80;52.40;;;;;;5033777;28;20570;-76
2023/05/28 06:25:08;;;;;;;3.97;2.10;;;21.00;52.90;;;;;;5033604;28;20523;-73
2023/05/28 06:27:36;;;;;;;3.10;2.00;;;20.80;52.20;;;;;;5033833;28;20443;-76
2023/05/28 06:30:04;;;;;;;4.27;2.50;;;20.80;53.10;;;;;;5033596;28;20924;-76
2023/05/28 06:32:31;;;;;;;4.63;3.10;;;20.60;53.30;;;;;;5033626;28;20458;-76
2023/05/28 06:34:58;;;;;;;2.50;2.27;;;20.20;52.90;;;;;;5033550;28;20475;-76
2023/05/28 06:37:26;;;;;;;3.07;2.37;;;19.90;53.90;;;;;;5033540;28;20447;-76
2023/05/28 06:39:53;;;;;;;3.00;1.90;;;19.60;53.90;;;;;;5033847;28;20455;-75
2023/05/28 06:42:19;;;;;;;3.43;2.40;;;19.40;54.70;;;;;;5034855;28;20537;-76
2023/05/28 06:44:46;;;;;;;2.87;2.20;;;19.70;55.90;;;;;;5033936;28;20907;-76
2023/05/28 06:47:13;;;;;;;3.27;2.57;;;19.60;55.00;;;;;;5033099;28;20447;-75
2023/05/28 06:49:39;;;;;;;3.07;2.30;;;19.80;55.00;;;;;;5033456;28;20498;-76
2023/05/28 06:52:06;;;;;;;2.60;1.93;;;20.00;56.10;;;;;;5033349;28;20443;-76
2023/05/28 06:54:34;;;;;;;4.60;2.23;;;20.30;52.90;;;;;;5032996;28;20984;-77
2023/05/28 06:57:01;;;;;;;2.97;2.00;;;20.00;53.70;;;;;;5032983;28;20936;-77
2023/05/28 06:59:28;;;;;;;3.20;2.40;;;20.10;54.10;;;;;;5033445;28;20525;-77
2023/05/28 07:01:55;;;;;;;2.73;1.87;;;20.40;54.70;;;;;;5033272;28;20474;-77
2023/05/28 07:04:22;;;;;;;3.93;2.83;;;20.80;54.00;;;;;;5033211;28;20526;-77
2023/05/28 07:06:48;;;;;;;3.50;2.60;;;20.80;53.90;;;;;;5033293;28;20866;-77
2023/05/28 07:09:15;;;;;;;2.87;2.10;;;20.80;54.20;;;;;;5032892;28;20998;-78
2023/05/28 07:11:43;;;;;;;3.90;2.10;;;21.10;53.80;;;;;;5033190;28;20447;-77
2023/05/28 07:14:10;;;;;;;3.20;2.20;;;21.60;53.20;;;;;;5032895;28;20545;-77
2023/05/28 07:16:36;;;;;;;3.40;2.13;;;21.50;52.90;;;;;;5033647;28;20451;-78
2023/05/28 07:19:03;;;;;;;4.07;2.60;;;21.60;53.10;;;;;;5033209;28;20443;-77
2023/05/28 07:21:31;;;;;;;2.80;1.93;;;21.80;51.50;;;;;;5032737;28;20478;-77
2023/05/28 07:23:58;;;;;;;3.50;2.60;;;21.70;53.00;;;;;;5033123;28;20511;-77
2023/05/28 07:26:25;;;;;;;3.50;2.20;;;21.90;52.80;;;;;;5033071;28;20505;-77
2023/05/28 07:28:53;;;;;;;4.17;2.70;;;21.80;51.30;;;;;;5032999;28;20462;-77
2023/05/28 07:31:19;;;;;;;3.00;2.20;;;22.30;50.90;;;;;;5033065;28;20470;-77
2023/05/28 07:33:46;;;;;;;3.97;2.40;;;22.60;51.10;;;;;;5032900;28;20471;-77
2023/05/28 07:36:13;;;;;;;3.53;2.10;;;22.70;49.40;;;;;;5033008;28;20502;-77
2023/05/28 07:38:39;;;;;;;2.93;2.07;;;22.80;49.40;;;;;;5032909;28;20510;-77
2023/05/28 07:41:06;;;;;;;3.60;2.53;;;22.70;49.00;;;;;;5032857;28;20447;-78
2023/05/28 07:43:33;;;;;;;3.27;2.03;;;22.40;49.00;;;;;;5032881;28;20521;-77
2023/05/28 07:46:01;;;;;;;4.73;2.23;;;22.80;50.40;;;;;;5032874;28;20501;-78
2023/05/28 07:48:27;;;;;;;2.87;2.00;;;22.30;50.00;;;;;;5032894;28;20448;-78
2023/05/28 07:50:54;;;;;;;3.40;2.23;;;22.20;50.20;;;;;;5032969;28;20443;-77
2023/05/28 07:53:21;;;;;;;4.20;2.40;;;22.10;50.70;;;;;;5032789;28;20460;-78
2023/05/28 07:55:47;;;;;;;4.87;2.57;;;22.10;52.10;;;;;;5032741;28;20443;-77
2023/05/28 07:58:14;;;;;;;4.40;2.43;;;22.10;51.90;;;;;;5033340;28;20451;-77
2023/05/28 08:00:40;;;;;;;4.63;2.07;;;22.10;50.70;;;;;;5032712;28;20872;-78
2023/05/28 08:03:11;;;;;;;3.20;2.47;;;22.70;50.50;;;;;;5032616;28;20479;-78
2023/05/28 08:05:38;;;;;;;3.43;1.97;;;22.90;50.00;;;;;;5032961;28;20440;-77
2023/05/28 08:08:04;;;;;;;3.53;2.87;;;23.10;50.00;;;;;;5036106;28;20455;-77
2023/05/28 08:10:31;;;;;;;2.70;1.83;;;23.20;50.60;;;;;;5036270;28;20550;-77
2023/05/28 08:12:58;;;;;;;3.37;2.33;;;23.40;51.10;;;;;;5036279;28;20443;-78
2023/05/28 08:15:24;;;;;;;3.37;2.37;;;23.60;49.70;;;;;;5036114;28;20466;-77
2023/05/28 08:17:51;;;;;;;3.30;2.37;;;23.90;48.40;;;;;;5036189;28;20447;-77
2023/05/28 08:20:22;;;;;;;3.50;2.17;;;23.60;47.60;;;;;;5035966;28;20447;-77
2023/05/28 08:22:48;;;;;;;2.90;2.17;;;23.50;50.10;;;;;;5036037;28;20558;-77
2023/05/28 08:25:15;;;;;;;4.03;2.63;;;23.50;49.80;;;;;;5035940;28;20467;-77
2023/05/28 08:27:42;;;;;;;3.30;2.37;;;23.60;50.30;;;;;;5036046;28;20510;-77
2023/05/28 08:30:09;;;;;;;3.13;2.00;;;23.40;50.30;;;;;;5035975;28;20443;-77
2023/05/28 08:32:36;;;;;;;3.03;2.27;;;23.60;49.90;;;;;;5035882;28;20497;-78
2023/05/28 08:35:03;;;;;;;2.73;1.80;;;23.70;49.00;;;;;;5035583;28;20886;-77
2023/05/28 08:37:31;;;;;;;3.97;3.00;;;23.60;50.10;;;;;;5035873;28;20535;-77
2023/05/28 08:39:58;;;;;;;4.00;2.57;;;23.60;51.10;;;;;;5035734;28;20517;-77
2023/05/28 08:42:27;;;;;;;6.10;2.50;;;23.60;51.00;;;;;;5035318;28;20920;-77
2023/05/28 08:44:54;;;;;;;2.90;2.30;;;23.70;50.10;;;;;;5035824;28;20475;-78
2023/05/28 08:47:22;;;;;;;3.67;2.47;;;24.00;49.90;;;;;;5035650;28;20451;-77
2023/05/28 08:49:52;;;;;;;2.63;2.33;;;24.00;49.20;;;;;;5035570;28;20444;-78
2023/05/28 08:52:20;;;;;;;3.80;2.67;;;24.20;49.60;;;;;;5035509;28;20542;-77
2023/05/28 08:54:48;;;;;;;3.80;2.07;;;23.90;49.70;;;;;;5035397;28;20525;-77
2023/05/28 08:57:16;;;;;;;3.20;2.20;;;23.20;48.60;;;;;;5035110;28;20851;-77
2023/05/28 08:59:45;;;;;;;4.00;2.47;;;23.00;50.00;;;;;;5035348;28;20443;-76
2023/05/28 09:02:12;;;;;;;3.60;2.47;;;22.80;50.50;;;;;;5035222;28;20483;-77
2023/05/28 09:04:40;;;;;;;3.30;2.70;;;22.90;51.30;;;;;;5035194;28;20518;-77
2023/05/28 09:07:07;;;;;;;3.07;1.70;;;23.00;51.60;;;;;;5035202;28;20462;-77
2023/05/28 09:09:34;;;;;;;3.70;2.23;;;23.10;50.70;;;;;;5035210;28;20478;-77
2023/05/28 09:12:06;;;;;;;3.40;2.47;;;23.20;50.50;;;;;;5035119;28;20846;-77
2023/05/28 09:14:39;;;;;;;3.90;2.30;;;23.40;49.70;;;;;;5034738;28;20492;-77
2023/05/28 09:17:05;;;;;;;3.70;2.13;;;23.30;48.40;;;;;;5034853;28;20514;-77
2023/05/28 09:19:33;;;;;;;3.90;2.40;;;23.60;50.60;;;;;;5034133;28;20456;-77
2023/05/28 09:22:01;;;;;;;4.13;2.43;;;23.70;50.70;;;;;;5034850;28;20483;-77
2023/05/28 09:24:29;;;;;;;3.00;2.03;;;24.00;49.60;;;;;;5034778;28;20588;-77
2023/05/28 09:26:57;;;;;;;2.97;2.00;;;24.00;47.30;;;;;;5034813;28;20494;-77
2023/05/28 09:29:26;;;;;;;5.17;2.50;;;23.80;47.50;;;;;;5034520;28;20816;-77
2023/05/28 09:31:57;;;;;;;4.43;2.60;;;23.40;49.30;;;;;;5034688;28;20463;-74
2023/05/28 09:34:27;;;;;;;5.13;2.30;;;23.50;49.50;;;;;;5034678;28;20467;-77
2023/05/28 09:36:54;;;;;;;2.90;2.00;;;23.80;49.40;;;;;;5034735;28;20467;-77
2023/05/28 09:39:25;;;;;;;3.00;2.33;;;23.80;48.10;;;;;;5035484;28;20487;-77
2023/05/28 09:41:59;;;;;;;3.33;2.30;;;23.70;49.90;;;;;;5034603;28;20435;-77
2023/05/28 09:44:31;;;;;;;2.87;2.20;;;23.70;49.40;;;;;;5034528;28;20467;-77
2023/05/28 09:46:57;;;;;;;3.20;2.30;;;24.00;51.40;;;;;;5034576;28;20528;-77
2023/05/28 09:49:24;;;;;;;3.00;2.03;;;24.50;49.70;;;;;;5034402;28;20447;-77
2023/05/28 09:51:53;;;;;;;3.63;2.17;;;24.90;49.20;;;;;;5034525;28;20448;-77
2023/05/28 09:54:21;;;;;;;3.57;2.50;;;24.70;48.70;;;;;;5034303;28;20881;-78
2023/05/28 09:56:52;;;;;;;3.50;2.33;;;25.10;47.40;;;;;;5034272;28;20451;-77
2023/05/28 09:59:19;;;;;;;4.10;2.63;;;25.10;47.90;;;;;;5034272;28;20523;-77
2023/05/28 10:01:54;;;;;;;3.20;2.50;;;24.80;47.50;;;;;;5036020;28;20447;-77
2023/05/28 10:04:29;;;;;;;2.87;2.10;;;24.50;47.80;;;;;;5040607;28;21005;-77
2023/05/28 10:06:57;;;;;;;3.27;2.20;;;24.10;49.20;;;;;;5057364;28;20498;-75
2023/05/28 10:09:23;;;;;;;4.17;2.30;;;24.20;49.70;;;;;;5053017;28;20452;-77
2023/05/28 10:11:56;;;;;;;3.30;2.33;;;24.40;49.20;;;;;;5037916;28;20493;-77
2023/05/28 10:14:23;;;;;;;4.57;2.83;;;24.60;49.40;;;;;;5144081;22;20536;-78
2023/05/28 10:16:52;;;;;;;5.00;2.60;;;24.50;48.90;;;;;;5033978;28;20452;-78
2023/05/28 10:19:19;;;;;;;4.00;2.37;;;24.60;49.10;;;;;;5033833;28;20884;-78
2023/05/28 10:21:46;;;;;;;2.87;2.17;;;24.60;49.20;;;;;;5033870;28;20451;-78
2023/05/28 10:24:13;;;;;;;3.00;2.17;;;24.60;48.10;;;;;;5033700;28;20464;-77
2023/05/28 10:26:40;;;;;;;4.10;2.50;;;24.70;48.90;;;;;;5033821;28;20512;-78
2023/05/28 10:29:08;;;;;;;3.60;2.57;;;24.50;49.90;;;;;;5033387;28;20509;-77
2023/05/28 10:31:34;;;;;;;3.70;2.40;;;24.50;48.20;;;;;;5033711;28;20443;-78
2023/05/28 10:34:03;;;;;;;3.87;2.60;;;24.50;49.60;;;;;;5033609;28;20510;-77
2023/05/28 10:36:29;;;;;;;4.27;2.23;;;24.70;50.10;;;;;;5033701;28;20444;-78
2023/05/28 10:38:59;;;;;;;4.43;2.63;;;24.90;50.50;;;;;;5033610;28;20440;-78
2023/05/28 10:41:31;;;;;;;4.60;3.40;;;25.00;49.40;;;;;;5033632;28;20535;-78
2023/05/28 10:44:06;;;;;;;3.80;2.07;;;25.00;49.00;;;;;;5033313;28;20495;-77
2023/05/28 10:46:37;;;;;;;2.67;2.03;;;24.80;48.20;;;;;;5033283;28;20437;-78
2023/05/28 10:49:11;;;;;;;3.60;2.27;;;25.00;49.10;;;;;;5033535;28;20435;-77
2023/05/28 10:51:52;;;;;;;3.57;2.20;;;25.20;49.00;;;;;;5033590;28;20437;-78
2023/05/28 10:54:24;;;;;;;2.93;2.37;;;25.30;49.30;;;;;;5033385;28;20964;-78
2023/05/28 10:57:11;;;;;;;3.60;2.37;;;25.70;49.10;;;;;;5033452;28;20463;-78
2023/05/28 10:59:39;;;;;;;2.87;2.27;;;25.70;48.80;;;;;;5033388;28;20534;-78
2023/05/28 11:02:07;;;;;;;3.40;2.30;;;25.70;48.30;;;;;;5033220;28;20448;-78
2023/05/28 11:04:35;;;;;;;3.37;2.00;;;25.60;47.40;;;;;;5033211;28;20559;-78
2023/05/28 11:07:02;;;;;;;3.90;2.10;;;25.60;48.60;;;;;;5033231;28;20471;-78
2023/05/28 11:09:29;;;;;;;2.60;2.03;;;25.20;48.00;;;;;;5033240;28;20569;-78
2023/05/28 11:11:59;;;;;;;2.90;2.30;;;25.20;47.20;;;;;;5033155;28;20447;-78
2023/05/28 11:14:29;;;;;;;3.33;2.30;;;25.40;48.80;;;;;;5032961;28;20918;-78
2023/05/28 11:16:56;;;;;;;2.90;2.37;;;25.50;47.20;;;;;;5033058;28;20451;-77
2023/05/28 11:19:22;;;;;;;2.73;1.93;;;25.80;46.90;;;;;;5033204;28;20451;-78
2023/05/28 11:21:55;;;;;;;3.00;2.40;;;26.10;47.00;;;;;;5033199;28;20809;-78
2023/05/28 11:24:22;;;;;;;3.57;2.50;;;26.50;46.00;;;;;;5032800;28;20491;-78
2023/05/28 11:26:48;;;;;;;4.00;2.50;;;26.70;46.40;;;;;;5033068;28;20478;-78
2023/05/28 11:29:16;;;;;;;4.20;2.53;;;26.80;44.50;;;;;;5033125;28;20451;-78
2023/05/28 11:31:43;;;;;;;3.57;2.40;;;26.80;43.50;;;;;;5033139;28;20451;-78
2023/05/28 11:34:10;;;;;;;4.80;2.57;;;26.70;43.80;;;;;;5032620;28;20972;-78
2023/05/28 11:36:41;;;;;;;2.90;1.90;;;26.70;43.40;;;;;;5032732;28;20932;-78
2023/05/28 11:39:09;;;;;;;3.80;2.57;;;26.50;44.20;;;;;;5032986;28;20428;-78
2023/05/28 11:41:36;;;;;;;4.67;2.13;;;26.30;44.40;;;;;;5034330;28;20501;-78
2023/05/28 11:44:03;;;;;;;3.60;2.73;;;26.00;44.70;;;;;;5036715;28;20491;-78
2023/05/28 11:46:29;;;;;;;3.03;2.13;;;25.90;44.10;;;;;;5036715;28;20501;-78
2023/05/28 11:48:56;;;;;;;3.60;2.60;;;26.10;44.50;;;;;;5036809;28;20458;-76
2023/05/28 11:51:23;;;;;;;4.13;2.03;;;25.80;44.70;;;;;;5036546;28;20514;-77
2023/05/28 11:53:49;;;;;;;3.07;2.23;;;25.80;46.60;;;;;;5036578;28;20464;-77
2023/05/28 11:56:17;;;;;;;2.90;2.30;;;26.00;45.00;;;;;;5036554;28;20447;-77
2023/05/28 11:58:48;;;;;;;3.13;2.20;;;26.30;45.60;;;;;;5036477;28;20451;-77
2023/05/28 12:01:15;;;;;;;2.63;1.93;;;26.60;44.70;;;;;;5036080;28;20819;-77
2023/05/28 12:03:42;;;;;;;3.20;2.30;;;26.80;43.90;;;;;;5036249;28;20487;-78
2023/05/28 12:06:10;;;;;;;3.77;2.00;;;27.00;43.50;;;;;;5036335;28;20447;-77
2023/05/28 12:08:39;;;;;;;2.80;2.17;;;27.00;43.00;;;;;;5036308;28;20447;-77
2023/05/28 12:11:06;;;;;;;2.83;2.23;;;27.20;42.40;;;;;;5035956;28;20905;-78
2023/05/28 12:13:35;;;;;;;3.20;1.90;;;27.30;43.50;;;;;;5036040;28;20525;-76
2023/05/28 12:16:12;;;;;;;3.50;2.57;;;27.30;43.70;;;;;;5036164;28;20432;-76
2023/05/28 12:18:42;;;;;;;3.47;2.23;;;27.00;42.50;;;;;;5036289;28;20437;-75
2023/05/28 12:21:12;;;;;;;3.57;2.77;;;26.50;42.30;;;;;;5036192;28;20482;-75
2023/05/28 12:23:39;;;;;;;6.20;2.53;;;26.20;41.40;;;;;;5035534;28;20863;-75
2023/05/28 12:26:12;;;;;;;3.47;2.20;;;26.10;43.00;;;;;;5035941;28;20452;-75
2023/05/28 12:28:41;;;;;;;4.57;2.50;;;25.70;43.20;;;;;;5035987;28;20440;-76
2023/05/28 12:31:08;;;;;;;2.70;2.20;;;25.80;43.10;;;;;;5035563;28;20994;-76
2023/05/28 12:33:35;;;;;;;2.83;2.07;;;26.20;42.40;;;;;;5035753;28;20474;-76
2023/05/28 12:36:02;;;;;;;4.63;1.90;;;26.30;41.70;;;;;;5035800;28;20455;-76
2023/05/28 12:38:29;;;;;;;2.50;2.00;;;26.30;40.50;;;;;;5035761;28;20443;-77
2023/05/28 12:40:56;;;;;;;3.30;2.13;;;26.40;41.50;;;;;;5035727;28;20444;-77
2023/05/28 12:43:22;;;;;;;2.67;2.00;;;26.40;38.10;;;;;;5035228;28;20479;-76
2023/05/28 12:45:50;;;;;;;3.00;2.30;;;26.30;41.20;;;;;;5035248;28;20936;-76
2023/05/28 12:48:17;;;;;;;2.20;1.77;;;26.10;37.70;;;;;;5035274;28;20929;-77
2023/05/28 12:50:44;;;;;;;2.93;1.90;;;26.00;38.90;;;;;;5035561;28;20444;-76
2023/05/28 12:53:11;;;;;;;3.60;2.10;;;26.30;41.00;;;;;;5035588;28;20494;-75
2023/05/28 12:55:37;;;;;;;3.47;2.20;;;26.40;41.30;;;;;;5035533;28;20494;-75
2023/05/28 12:58:04;;;;;;;2.87;2.00;;;26.80;40.70;;;;;;5035675;28;20449;-75
2023/05/28 13:00:31;;;;;;;3.63;2.10;;;27.00;40.80;;;;;;5035484;28;20443;-77
2023/05/28 13:02:59;;;;;;;2.50;2.07;;;27.00;39.90;;;;;;5035085;28;21031;-76
2023/05/28 13:05:26;;;;;;;2.47;1.80;;;27.30;38.00;;;;;;5035316;28;20475;-74
2023/05/28 13:07:52;;;;;;;3.30;2.13;;;27.10;40.20;;;;;;5035279;28;20452;-74
2023/05/28 13:10:19;;;;;;;2.60;2.20;;;27.30;39.70;;;;;;5035063;28;20521;-76
2023/05/28 13:12:46;;;;;;;2.77;2.23;;;27.10;38.50;;;;;;5034788;28;20866;-75
2023/05/28 13:15:12;;;;;;;2.67;2.23;;;26.80;38.50;;;;;;5034637;28;20483;-77
2023/05/28 13:17:39;;;;;;;3.37;2.37;;;26.70;39.00;;;;;;5034679;28;20936;-75
2023/05/28 13:20:10;;;;;;;5.03;2.47;;;26.70;40.40;;;;;;5034996;28;20453;-76
2023/05/28 13:22:36;;;;;;;3.60;2.37;;;27.10;39.30;;;;;;5035792;28;20543;-76
2023/05/28 13:25:04;;;;;;;2.43;2.10;;;27.20;39.70;;;;;;5034438;28;20999;-75
2023/05/28 13:27:30;;;;;;;3.30;2.70;;;27.40;40.30;;;;;;5034862;28;20447;-75
2023/05/28 13:29:57;;;;;;;3.17;2.30;;;27.80;40.50;;;;;;5034815;28;20454;-76
2023/05/28 13:32:24;;;;;;;2.73;1.90;;;28.20;39.90;;;;;;5034738;28;20455;-76
2023/05/28 13:34:51;;;;;;;2.67;2.33;;;28.40;40.40;;;;;;5034628;28;20463;-76
2023/05/28 13:37:19;;;;;;;3.73;2.27;;;28.70;39.50;;;;;;5034637;28;20444;-76
2023/05/28 13:39:46;;;;;;;3.60;2.73;;;28.80;38.60;;;;;;5034612;28;20449;-76
2023/05/28 13:42:19;;;;;;;3.03;2.20;;;28.60;36.40;;;;;;5034514;28;20459;-76
2023/05/28 13:44:46;;;;;;;2.70;2.30;;;28.00;37.30;;;;;;5034406;28;20518;-76
2023/05/28 13:47:13;;;;;;;3.40;2.63;;;27.50;37.10;;;;;;5034122;28;20965;-76
2023/05/28 13:49:40;;;;;;;2.90;2.60;;;26.80;37.20;;;;;;5034354;28;20475;-76
2023/05/28 13:52:08;;;;;;;3.30;2.57;;;26.70;38.00;;;;;;5034376;28;20463;-76
2023/05/28 13:54:36;;;;;;;3.50;2.47;;;26.50;38.50;;;;;;5033841;28;20471;-76
2023/05/28 13:57:02;;;;;;;3.23;2.60;;;26.80;38.90;;;;;;5034445;28;20530;-76
2023/05/28 13:59:29;;;;;;;2.80;2.10;;;27.10;39.10;;;;;;5034165;28;20846;-76
2023/05/28 14:01:56;;;;;;;3.00;2.10;;;27.20;38.90;;;;;;5034156;28;20815;-76
2023/05/28 14:04:22;;;;;;;3.30;2.00;;;27.60;39.50;;;;;;5033150;28;21003;-76
2023/05/28 14:06:49;;;;;;;2.83;2.17;;;28.00;39.00;;;;;;5033781;28;20506;-76
2023/05/28 14:09:16;;;;;;;3.50;2.23;;;28.00;38.40;;;;;;5033951;28;20447;-76
2023/05/28 14:11:44;;;;;;;2.20;1.93;;;28.10;39.60;;;;;;5033961;28;20454;-76
2023/05/28 14:14:10;;;;;;;4.67;2.70;;;28.40;38.20;;;;;;5033919;28;20545;-76
2023/05/28 14:16:37;;;;;;;2.97;2.23;;;28.70;36.00;;;;;;5033939;28;20484;-76
2023/05/28 14:19:03;;;;;;;2.60;1.97;;;28.90;36.40;;;;;;5033580;28;20999;-76
2023/05/28 14:21:30;;;;;;;2.43;2.07;;;28.90;36.60;;;;;;5033508;28;20940;-76
2023/05/28 14:23:57;;;;;;;2.83;2.23;;;29.00;37.60;;;;;;5033614;28;20499;-76
2023/05/28 14:26:23;;;;;;;5.63;2.57;;;28.80;36.60;;;;;;5033703;28;20501;-76
2023/05/28 14:28:51;;;;;;;3.87;2.57;;;28.70;36.30;;;;;;5033715;28;20447;-76
2023/05/28 14:31:18;;;;;;;3.00;1.97;;;28.50;37.30;;;;;;5033663;28;20501;-76
2023/05/28 14:33:44;;;;;;;2.90;2.17;;;28.00;37.60;;;;;;5033551;28;20525;-76
2023/05/28 14:36:11;;;;;;;3.40;2.27;;;27.70;38.60;;;;;;5033556;28;20452;-76
2023/05/28 14:38:38;;;;;;;3.73;2.37;;;27.80;38.70;;;;;;5033631;28;20884;-76
2023/05/28 14:41:05;;;;;;;2.97;2.10;;;27.90;39.70;;;;;;5033543;28;20451;-76
2023/05/28 14:43:32;;;;;;;3.70;2.07;;;28.00;38.30;;;;;;5033327;28;20475;-76
2023/05/28 14:46:00;;;;;;;2.70;2.20;;;28.00;39.70;;;;;;5033405;28;20681;-76
2023/05/28 14:48:26;;;;;;;2.43;1.77;;;28.30;39.00;;;;;;5033386;28;20447;-76
2023/05/28 14:50:53;;;;;;;3.33;2.20;;;28.60;38.70;;;;;;5033016;28;20876;-76
2023/05/28 14:53:20;;;;;;;2.63;2.30;;;28.80;37.90;;;;;;5033286;28;20451;-76
2023/05/28 14:55:47;;;;;;;4.23;2.27;;;28.80;38.30;;;;;;5033319;28;20497;-76
2023/05/28 14:58:13;;;;;;;3.47;2.30;;;29.20;38.20;;;;;;5033263;28;20459;-76
2023/05/28 15:00:40;;;;;;;2.20;1.73;;;29.20;37.50;;;;;;5033232;28;20443;-76
2023/05/28 15:03:08;;;;;;;2.90;1.87;;;28.90;38.40;;;;;;5033196;28;20440;-76
2023/05/28 15:05:35;;;;;;;3.40;2.03;;;29.20;38.30;;;;;;5033050;28;20480;-76
2023/05/28 15:08:01;;;;;;;3.33;1.90;;;29.50;38.00;;;;;;5033186;28;20444;-76
2023/05/28 15:10:28;;;;;;;3.37;2.50;;;29.50;38.20;;;;;;5033140;28;20506;-76
2023/05/28 15:12:57;;;;;;;3.33;2.13;;;29.30;38.30;;;;;;5033107;28;20487;-76
2023/05/28 15:15:24;;;;;;;3.20;2.80;;;29.30;37.70;;;;;;5032747;28;20475;-76
2023/05/28 15:17:51;;;;;;;4.27;3.50;;;29.30;38.40;;;;;;5036562;28;20559;-76
2023/05/28 15:20:19;;;;;;;5.20;4.80;;;29.20;39.00;;;;;;5037214;28;20447;-76
2023/05/28 15:22:46;;;;;;;3.90;3.40;;;28.90;38.00;;;;;;5036899;28;20506;-76
2023/05/28 15:25:13;;;;;;;3.40;3.10;;;28.40;38.60;;;;;;5036971;28;20483;-76
2023/05/28 15:27:40;;;;;;;3.03;2.20;;;28.20;38.90;;;;;;5037038;28;20491;-76
2023/05/28 15:30:08;;;;;;;2.20;1.80;;;28.30;38.30;;;;;;5036691;28;20866;-76
2023/05/28 15:32:37;;;;;;;3.27;2.73;;;28.50;39.80;;;;;;5036961;28;20455;-76
2023/05/28 15:35:04;;;;;;;4.47;2.87;;;28.40;40.30;;;;;;5036857;28;20459;-76
2023/05/28 15:37:33;;;;;;;5.30;2.57;;;28.30;40.00;;;;;;5036491;28;20944;-76
2023/05/28 15:40:00;;;;;;;3.70;2.80;;;28.00;40.00;;;;;;5036542;28;20451;-76
2023/05/28 15:42:27;;;;;;;2.40;2.10;;;28.00;40.10;;;;;;5036484;28;20916;-76
2023/05/28 15:44:54;;;;;;;3.03;2.27;;;28.00;40.50;;;;;;5036257;28;21070;-76
2023/05/28 15:47:20;;;;;;;2.83;2.30;;;28.30;39.90;;;;;;5036374;28;20803;-76
2023/05/28 15:49:47;;;;;;;2.83;2.53;;;28.00;39.40;;;;;;5036340;28;20944;-76
2023/05/28 15:52:14;;;;;;;3.23;2.07;;;28.10;39.40;;;;;;5036642;28;20451;-76
2023/05/28 15:54:42;;;;;;;2.90;2.50;;;27.90;39.40;;;;;;5036467;28;20467;-76
2023/05/28 15:57:09;;;;;;;3.87;2.40;;;27.90;40.20;;;;;;5036523;28;20501;-76
2023/05/28 15:59:41;;;;;;;3.57;2.17;;;28.00;40.90;;;;;;5036541;28;20448;-76
2023/05/28 16:02:09;;;;;;;3.80;2.93;;;28.00;39.10;;;;;;5036512;28;20471;-76
2023/05/28 16:04:36;;;;;;;2.57;1.73;;;27.80;39.00;;;;;;5036229;28;20540;-76
2023/05/28 16:07:03;;;;;;;2.90;2.60;;;27.90;39.40;;;;;;5036388;28;20447;-76
2023/05/28 16:09:30;;;;;;;3.90;3.30;;;27.80;39.40;;;;;;5036314;28;20451;-76
2023/05/28 16:12:00;;;;;;;3.60;2.77;;;27.50;40.40;;;;;;5036259;28;20448;-76
2023/05/28 16:14:33;;;;;;;3.97;2.30;;;27.30;40.90;;;;;;5036477;28;20984;-76
2023/05/28 16:17:00;;;;;;;4.10;2.60;;;27.50;40.90;;;;;;5036172;28;20489;-76
2023/05/28 16:19:27;;;;;;;4.10;2.43;;;27.20;39.90;;;;;;5036136;28;20451;-76
2023/05/28 16:21:55;;;;;;;4.50;2.93;;;27.30;39.30;;;;;;5036081;28;20505;-76
2023/05/28 16:24:21;;;;;;;2.97;2.37;;;27.20;40.70;;;;;;5035588;28;20552;-76
2023/05/28 16:26:50;;;;;;;3.90;2.50;;;27.10;40.30;;;;;;5035455;28;20458;-76
2023/05/28 16:29:18;;;;;;;2.93;2.57;;;26.80;40.20;;;;;;5035983;28;20452;-76
2023/05/28 16:31:47;;;;;;;3.77;2.30;;;26.80;40.30;;;;;;5035878;28;20494;-76
2023/05/28 16:34:14;;;;;;;3.60;2.60;;;26.80;39.10;;;;;;5035812;28;20513;-76
2023/05/28 16:36:41;;;;;;;3.33;2.20;;;26.60;39.80;;;;;;5035900;28;20447;-76
2023/05/28 16:39:08;;;;;;;2.33;2.13;;;26.70;40.10;;;;;;5035455;28;20941;-76
2023/05/28 16:41:35;;;;;;;2.70;2.20;;;26.80;40.00;;;;;;5035440;28;20959;-76
2023/05/28 16:44:02;;;;;;;2.97;2.40;;;27.00;41.40;;;;;;5035511;28;20468;-76
2023/05/28 16:46:31;;;;;;;2.33;1.93;;;26.70;40.40;;;;;;5035661;28;20455;-76
2023/05/28 16:48:58;;;;;;;2.57;2.17;;;26.60;41.30;;;;;;5035609;28;20479;-76
2023/05/28 16:51:24;;;;;;;3.20;2.20;;;26.30;40.70;;;;;;5035552;28;20447;-76